Falcon, Kentucky
Current Conditions -  °F | °C
As of 2:55 PM on Wednesday 28 Jan 2015 (Local Time) from KSJS Reporting Station
Clear Clear  
Wind Chill: 33°   Ceiling: Unl
Heat Index: 33°   Visibility: 10mi
Dew Point: 20°   Wind: 3mph
Humidity: 60%   Direction: 110°ESE
Pressure: 30.3"   Gusts: NA
Location:  37.79°N, 83°W
Report Text: KSJS 281955Z AUTO 11003KT 10SM CLR 00/M07 A3030 RMK AO2 T00031067
Loading
Personal Weather Stations






























Interactive Weather Map New forecast layout! Learn more

10-Day Weather Forecast

Advertisements
Track Severe Weather on mobile